createdAt,value
2023-03-18T00:00:38.018Z,150932.06
2023-03-18T00:03:04.053Z,150900.44
2023-03-18T00:05:30.394Z,150920.69
2023-03-18T00:07:56.426Z,150940.91
2023-03-18T00:10:22.293Z,150924.50
2023-03-18T00:12:49.702Z,150929.53
2023-03-18T00:15:17.439Z,150934.56
2023-03-18T00:17:43.456Z,150939.66
2023-03-18T00:20:12.119Z,150948.50
2023-03-18T00:22:39.709Z,150939.66
2023-03-18T00:25:08.431Z,150949.75
2023-03-18T00:27:35.214Z,150919.44
2023-03-18T00:30:02.700Z,150939.66
2023-03-18T00:32:28.656Z,150930.78
2023-03-18T00:34:56.146Z,150948.50
2023-03-18T00:37:32.795Z,150921.97
2023-03-18T00:40:05.323Z,150923.22
2023-03-18T00:42:38.141Z,150924.50
2023-03-18T00:45:10.235Z,150925.75
2023-03-18T00:47:37.834Z,150897.91
2023-03-18T00:50:07.666Z,150887.78
2023-03-18T00:52:34.154Z,150890.34
2023-03-18T00:55:01.189Z,150880.19
2023-03-18T00:57:28.726Z,150882.69
2023-03-18T00:59:56.341Z,150901.75
2023-03-18T01:02:22.958Z,150882.69
2023-03-18T01:04:50.365Z,150896.66
2023-03-18T01:07:16.446Z,150884.00
2023-03-18T01:09:42.922Z,150866.31
2023-03-18T01:12:10.689Z,150894.13
2023-03-18T01:14:38.102Z,150905.53
2023-03-18T01:17:05.685Z,150910.56
2023-03-18T01:19:31.965Z,150904.28
2023-03-18T01:21:58.015Z,150908.06
2023-03-18T01:24:24.355Z,150899.19
2023-03-18T01:26:50.101Z,150906.78
2023-03-18T01:29:17.036Z,150901.75
2023-03-18T01:31:43.160Z,150924.50
2023-03-18T01:34:09.002Z,150923.22
2023-03-18T01:36:34.869Z,150938.41
2023-03-18T01:39:00.702Z,150925.75
2023-03-18T01:41:26.555Z,150935.84
2023-03-18T01:43:55.473Z,150930.78
2023-03-18T01:46:42.055Z,150938.41
2023-03-18T01:49:19.854Z,150939.66
2023-03-18T01:52:05.985Z,150911.84
2023-03-18T01:54:37.371Z,150932.06
2023-03-18T01:57:03.581Z,150934.56
2023-03-18T01:59:32.590Z,150918.13
2023-03-18T02:02:06.028Z,150910.56
2023-03-18T02:05:00.149Z,150928.28
2023-03-18T02:07:29.656Z,150920.69
2023-03-18T02:09:58.964Z,150906.78
2023-03-18T02:12:28.773Z,150906.78
2023-03-18T02:14:55.494Z,150899.19
2023-03-18T02:17:26.396Z,150933.31
2023-03-18T02:20:17.953Z,150919.44
2023-03-18T02:22:51.382Z,150906.78
2023-03-18T02:25:47.185Z,150910.56
2023-03-18T02:28:20.770Z,150886.53
2023-03-18T02:30:51.573Z,150906.78
2023-03-18T02:33:20.523Z,150903.00
2023-03-18T02:35:50.959Z,150889.09
2023-03-18T02:38:16.744Z,150887.78
2023-03-18T02:40:42.560Z,150891.63
2023-03-18T02:43:19.470Z,150885.25
2023-03-18T02:46:04.133Z,150910.56
2023-03-18T02:48:35.954Z,150897.91
2023-03-18T02:51:03.648Z,150919.44
2023-03-18T02:53:29.471Z,150901.75
2023-03-18T02:55:55.965Z,150905.53
2023-03-18T02:58:21.757Z,150897.91
2023-03-18T03:00:47.633Z,150896.66
2023-03-18T03:03:13.842Z,150903.00
2023-03-18T03:05:40.052Z,150920.69
2023-03-18T03:08:06.541Z,150906.78
2023-03-18T03:10:33.110Z,150908.06
2023-03-18T03:12:59.516Z,150915.63
2023-03-18T03:15:25.915Z,150920.69
2023-03-18T03:17:52.982Z,150938.41
2023-03-18T03:20:19.515Z,150918.13
2023-03-18T03:22:45.677Z,150906.78
2023-03-18T03:25:14.020Z,150934.56
2023-03-18T03:27:41.431Z,150925.75
2023-03-18T03:30:10.076Z,150921.97
2023-03-18T03:32:35.988Z,150914.34
2023-03-18T03:35:01.790Z,150935.84
2023-03-18T03:37:27.608Z,150915.63
2023-03-18T03:39:53.430Z,150921.97
2023-03-18T03:42:19.626Z,150906.78
2023-03-18T03:44:45.646Z,150914.34
2023-03-18T03:47:11.596Z,150916.88
2023-03-18T03:49:37.621Z,150896.66
2023-03-18T03:52:04.675Z,150877.66
2023-03-18T03:54:30.772Z,150896.66
2023-03-18T03:56:56.655Z,150876.41
2023-03-18T03:59:23.175Z,150865.00
2023-03-18T04:01:49.127Z,150830.94
2023-03-18T04:04:16.087Z,150847.31
2023-03-18T04:06:42.141Z,150848.63
2023-03-18T04:09:08.936Z,150825.84
2023-03-18T04:11:34.695Z,150800.59
2023-03-18T04:14:01.176Z,150817.00
2023-03-18T04:16:27.785Z,150818.28
2023-03-18T04:18:53.648Z,150815.75
2023-03-18T04:21:19.567Z,150835.97
2023-03-18T04:23:45.733Z,150820.78
2023-03-18T04:26:12.277Z,150842.28
2023-03-18T04:28:39.903Z,150820.78
2023-03-18T04:31:05.695Z,150800.59
2023-03-18T04:33:31.480Z,150799.31
2023-03-18T04:35:57.506Z,150790.47
2023-03-18T04:38:23.794Z,150796.81
2023-03-18T04:40:49.667Z,150786.69
2023-03-18T04:43:15.505Z,150779.13
2023-03-18T04:45:41.269Z,150771.50
2023-03-18T04:48:07.084Z,150772.75
2023-03-18T04:50:33.864Z,150787.94
2023-03-18T04:52:59.869Z,150777.84
2023-03-18T04:55:25.741Z,150780.38
2023-03-18T04:57:51.586Z,150768.97
2023-03-18T05:00:22.992Z,150784.16
2023-03-18T05:02:49.412Z,150770.25
2023-03-18T05:05:20.407Z,150780.38
2023-03-18T05:07:46.237Z,150776.59
2023-03-18T05:10:12.148Z,150753.81
2023-03-18T05:12:38.178Z,150733.59
2023-03-18T05:15:05.561Z,150763.94
2023-03-18T05:17:31.376Z,150734.88
2023-03-18T05:19:57.296Z,150729.81
2023-03-18T05:22:23.221Z,150742.47
2023-03-18T05:24:49.616Z,150727.31
2023-03-18T05:27:18.013Z,150737.38
2023-03-18T05:29:45.032Z,150732.34
2023-03-18T05:32:12.023Z,150739.97
2023-03-18T05:34:39.475Z,150757.66
2023-03-18T05:37:07.482Z,150747.50
2023-03-18T05:39:34.021Z,150748.78
2023-03-18T05:42:00.469Z,150752.56
2023-03-18T05:44:26.661Z,150739.97
2023-03-18T05:46:52.540Z,150776.59
2023-03-18T05:49:19.738Z,150772.75
2023-03-18T05:51:46.240Z,150774.03
2023-03-18T05:54:13.440Z,150775.28
2023-03-18T05:56:39.431Z,150753.81
2023-03-18T05:59:06.948Z,150756.34
2023-03-18T06:01:33.092Z,150761.44
2023-03-18T06:03:59.918Z,150756.34
2023-03-18T06:06:26.166Z,150774.03
2023-03-18T06:08:52.520Z,150809.41
2023-03-18T06:11:18.755Z,150800.59
2023-03-18T06:13:44.625Z,150809.41
2023-03-18T06:16:11.278Z,150782.91
2023-03-18T06:18:38.214Z,150772.75
2023-03-18T06:21:04.474Z,150757.66
2023-03-18T06:23:31.803Z,150784.16
2023-03-18T06:25:57.609Z,150809.41
2023-03-18T06:28:24.051Z,150799.31
2023-03-18T06:30:50.016Z,150795.53
2023-03-18T06:33:15.908Z,150814.50
2023-03-18T06:35:41.779Z,150814.50
2023-03-18T06:38:09.986Z,150829.66
2023-03-18T06:40:35.814Z,150827.09
2023-03-18T06:43:01.621Z,150842.28
2023-03-18T06:45:27.595Z,150872.63
2023-03-18T06:47:53.514Z,150857.44
2023-03-18T06:50:20.079Z,150859.97
2023-03-18T06:52:45.895Z,150867.56
2023-03-18T06:55:12.352Z,150839.75
2023-03-18T06:57:38.348Z,150880.19
2023-03-18T07:00:04.715Z,150880.19
2023-03-18T07:02:31.197Z,150876.41
2023-03-18T07:04:57.197Z,150906.78
2023-03-18T07:07:23.952Z,150903.00
2023-03-18T07:09:50.031Z,150918.13
2023-03-18T07:12:15.851Z,150908.06
2023-03-18T07:14:41.632Z,150908.06
2023-03-18T07:17:07.572Z,150881.44
2023-03-18T07:19:33.862Z,150891.63
2023-03-18T07:21:59.965Z,150872.63
2023-03-18T07:24:26.104Z,150890.34
2023-03-18T07:26:52.817Z,150909.31
2023-03-18T07:29:19.737Z,150897.91
2023-03-18T07:31:46.337Z,150910.56
2023-03-18T07:34:14.318Z,150890.34
2023-03-18T07:36:41.285Z,150884.00
2023-03-18T07:39:09.463Z,150915.63
2023-03-18T07:41:37.796Z,150913.09
2023-03-18T07:44:04.714Z,150906.78
2023-03-18T07:46:30.529Z,150929.53
2023-03-18T07:48:56.335Z,150944.72
2023-03-18T07:51:22.252Z,150968.72
2023-03-18T07:53:49.969Z,150918.13
2023-03-18T07:56:15.805Z,150920.69
2023-03-18T07:58:42.421Z,150947.22
2023-03-18T08:01:08.778Z,150945.97
2023-03-18T08:03:35.333Z,150975.06
2023-03-18T08:06:02.040Z,150945.97
2023-03-18T08:08:28.142Z,150939.66
2023-03-18T08:10:59.528Z,150918.13
2023-03-18T08:13:26.361Z,150894.13
2023-03-18T08:15:52.663Z,150943.44
2023-03-18T08:18:18.854Z,150964.94
2023-03-18T08:20:45.406Z,150958.63
2023-03-18T08:23:11.318Z,150980.09
2023-03-18T08:25:37.767Z,150991.50
2023-03-18T08:28:06.764Z,150991.50
2023-03-18T08:30:33.800Z,151028.16
2023-03-18T08:33:00.579Z,151024.34
2023-03-18T08:35:26.825Z,151054.69
2023-03-18T08:37:53.193Z,151101.50
2023-03-18T08:40:19.701Z,151101.50
2023-03-18T08:42:46.270Z,151117.94
2023-03-18T08:45:12.521Z,151140.69
2023-03-18T08:47:39.506Z,151144.47
2023-03-18T08:50:05.671Z,151165.97
2023-03-18T08:52:31.821Z,151203.91
2023-03-18T08:54:58.031Z,151209.03
2023-03-18T08:57:27.057Z,151219.09
2023-03-18T08:59:53.460Z,151246.97
2023-03-18T09:02:19.653Z,151214.06
2023-03-18T09:04:46.751Z,151292.50
2023-03-18T09:07:12.546Z,151252.00
2023-03-18T09:09:43.929Z,151254.53
2023-03-18T09:12:11.822Z,151269.72
2023-03-18T09:14:37.959Z,151262.16
2023-03-18T09:17:04.155Z,151259.59
2023-03-18T09:19:30.097Z,151305.16
2023-03-18T09:21:56.501Z,151388.75
2023-03-18T09:24:22.332Z,151403.91
2023-03-18T09:26:48.468Z,151476.06
2023-03-18T09:29:14.899Z,151557.13
2023-03-18T09:31:40.828Z,151606.53
2023-03-18T09:34:06.613Z,151609.06
2023-03-18T09:36:32.913Z,151672.38
2023-03-18T09:39:00.215Z,151691.38
2023-03-18T09:42:08.734Z,151691.38
2023-03-18T09:44:37.065Z,151676.19
2023-03-18T09:47:37.061Z,151628.06
2023-03-18T09:50:28.482Z,151648.31
2023-03-18T09:53:28.710Z,151640.72
2023-03-18T09:56:01.464Z,151781.38
2023-03-18T09:58:34.327Z,151768.72
2023-03-18T10:01:02.528Z,151702.78
2023-03-18T10:03:43.623Z,151709.09
2023-03-18T10:06:23.972Z,151754.78
2023-03-18T10:09:11.583Z,151811.81
2023-03-18T10:11:45.197Z,151695.19
2023-03-18T10:14:25.848Z,151838.44
2023-03-18T10:17:30.482Z,151866.31
2023-03-18T10:20:03.726Z,152055.22
2023-03-18T10:22:54.321Z,152171.94
2023-03-18T10:25:28.976Z,152241.72
2023-03-18T10:28:29.284Z,152411.81
2023-03-18T10:31:25.795Z,152433.44
2023-03-18T10:34:03.463Z,152442.31
2023-03-18T10:37:02.416Z,152414.34
2023-03-18T10:39:29.013Z,152546.44
2023-03-18T10:42:00.318Z,152455.03
2023-03-18T10:44:32.132Z,152542.63
2023-03-18T10:47:02.100Z,152505.81
2023-03-18T10:49:35.059Z,152446.09
2023-03-18T10:52:17.906Z,152574.34
2023-03-18T10:54:49.673Z,152710.34
2023-03-18T10:57:16.722Z,152884.41
2023-03-18T10:59:46.942Z,153086.63
2023-03-18T11:02:43.056Z,152936.53
2023-03-18T11:05:21.519Z,152992.50
2023-03-18T11:08:28.134Z,152960.72
2023-03-18T11:10:53.895Z,153090.44
2023-03-18T11:13:21.472Z,152976.03
2023-03-18T11:15:54.206Z,152857.72
2023-03-18T11:18:23.904Z,152925.09
2023-03-18T11:21:02.921Z,152992.50
2023-03-18T11:23:48.041Z,153045.91
2023-03-18T11:26:20.736Z,153204.91
2023-03-18T11:28:46.808Z,153197.28
2023-03-18T11:31:20.010Z,153243.13
2023-03-18T11:33:45.840Z,153110.78
2023-03-18T11:36:22.193Z,152851.41
2023-03-18T11:39:02.065Z,153077.72
2023-03-18T11:41:29.484Z,153425.09
2023-03-18T11:44:01.319Z,153607.19
2023-03-18T11:46:32.690Z,153305.50
2023-03-18T11:48:58.753Z,153182.03
2023-03-18T11:51:35.976Z,152997.63
2023-03-18T11:54:13.634Z,153033.22
2023-03-18T11:56:59.151Z,152822.16
2023-03-18T11:59:57.002Z,152786.56
2023-03-18T12:02:26.176Z,153034.50
2023-03-18T12:04:58.522Z,153220.22
2023-03-18T12:07:30.254Z,153264.78
2023-03-18T12:10:36.935Z,153605.94
2023-03-18T12:13:05.527Z,153686.25
2023-03-18T12:15:42.487Z,153697.66
2023-03-18T12:18:19.705Z,153617.41
2023-03-18T12:20:59.075Z,153246.97
2023-03-18T12:23:52.872Z,152881.88
2023-03-18T12:26:39.780Z,152737.00
2023-03-18T12:29:27.532Z,152721.75
2023-03-18T12:32:08.712Z,152842.47
2023-03-18T12:34:58.330Z,152857.72
2023-03-18T12:38:08.876Z,152961.97
2023-03-18T12:40:50.199Z,152836.13
2023-03-18T12:43:44.658Z,152846.28
2023-03-18T12:46:32.235Z,152794.16
2023-03-18T12:49:15.951Z,152677.25
2023-03-18T12:51:48.086Z,152723.06
2023-03-18T12:54:26.067Z,152615.03
2023-03-18T12:56:58.959Z,152557.84
2023-03-18T12:59:48.807Z,152457.56
2023-03-18T13:02:36.116Z,152490.56
2023-03-18T13:05:05.580Z,152531.19
2023-03-18T13:07:43.565Z,152578.19
2023-03-18T13:10:35.706Z,152564.22
2023-03-18T13:13:07.114Z,152613.75
2023-03-18T13:15:44.788Z,152627.69
2023-03-18T13:18:52.127Z,152518.47
2023-03-18T13:21:22.214Z,152566.75
2023-03-18T13:24:39.625Z,152508.34
2023-03-18T13:27:18.969Z,152622.63
2023-03-18T13:29:59.423Z,152776.41
2023-03-18T13:32:37.106Z,152912.38
2023-03-18T13:35:53.620Z,153157.88
2023-03-18T13:38:37.313Z,153175.69
2023-03-18T13:41:33.358Z,153319.50
2023-03-18T13:44:13.832Z,153299.09
2023-03-18T13:46:46.185Z,153367.81
2023-03-18T13:49:18.370Z,153381.84
2023-03-18T13:51:54.708Z,153299.09
2023-03-18T13:54:21.169Z,153282.56
2023-03-18T13:56:52.226Z,153117.13
2023-03-18T13:59:33.122Z,153043.38
2023-03-18T14:02:28.243Z,152890.78
2023-03-18T14:04:57.534Z,152848.84
2023-03-18T14:07:24.229Z,152817.06
2023-03-18T14:10:15.252Z,152845.00
2023-03-18T14:12:46.655Z,152894.59
2023-03-18T14:15:15.580Z,152811.94
2023-03-18T14:17:58.077Z,152621.34
2023-03-18T14:20:27.836Z,152505.81
2023-03-18T14:23:29.128Z,152460.09
2023-03-18T14:26:03.818Z,152561.69
2023-03-18T14:28:44.652Z,152518.47
2023-03-18T14:31:18.759Z,152427.06
2023-03-18T14:34:02.907Z,152463.88
2023-03-18T14:36:51.570Z,152475.31
2023-03-18T14:39:31.791Z,152472.78
2023-03-18T14:42:02.542Z,152414.34
2023-03-18T14:44:51.841Z,152377.50
2023-03-18T14:47:39.345Z,152366.09
2023-03-18T14:50:15.251Z,152350.88
2023-03-18T14:52:45.316Z,152394.00
2023-03-18T14:55:21.673Z,152373.69
2023-03-18T14:57:47.451Z,152394.00
2023-03-18T15:00:18.444Z,152441.03
2023-03-18T15:02:45.211Z,152476.59
2023-03-18T15:05:17.270Z,152460.09
2023-03-18T15:07:43.952Z,152368.63
2023-03-18T15:10:13.491Z,152293.75
2023-03-18T15:12:39.726Z,152255.69
2023-03-18T15:15:12.102Z,152185.91
2023-03-18T15:17:38.721Z,152145.34
2023-03-18T15:20:05.771Z,152132.63
2023-03-18T15:22:33.907Z,152127.56
2023-03-18T15:25:02.697Z,152094.59
2023-03-18T15:27:32.292Z,152094.59
2023-03-18T15:30:00.931Z,152126.31
2023-03-18T15:32:26.635Z,152177.00
2023-03-18T15:35:10.640Z,152174.47
2023-03-18T15:37:42.021Z,152116.13
2023-03-18T15:40:30.185Z,152114.88
2023-03-18T15:43:08.322Z,152047.59
2023-03-18T15:45:34.870Z,152069.16
2023-03-18T15:48:09.136Z,152093.28
2023-03-18T15:50:36.457Z,152116.13
2023-03-18T15:53:18.054Z,152157.97
2023-03-18T15:55:49.334Z,152196.03
2023-03-18T15:58:35.631Z,152197.31
2023-03-18T16:01:02.094Z,152212.53
2023-03-18T16:03:31.096Z,152240.47
2023-03-18T16:05:57.494Z,152248.06
2023-03-18T16:08:23.937Z,152240.47
2023-03-18T16:10:53.106Z,152260.75
2023-03-18T16:13:22.632Z,152218.91
2023-03-18T16:15:48.687Z,152184.66
2023-03-18T16:18:15.331Z,152174.47
2023-03-18T16:20:44.786Z,152221.44
2023-03-18T16:23:11.624Z,152174.47
2023-03-18T16:25:37.559Z,152132.63
2023-03-18T16:28:03.467Z,152123.72
2023-03-18T16:30:32.524Z,152071.66
2023-03-18T16:32:58.864Z,152069.16
2023-03-18T16:35:29.813Z,152062.81
2023-03-18T16:37:55.886Z,152056.50
2023-03-18T16:40:24.203Z,152037.47
2023-03-18T16:42:51.835Z,152042.53
2023-03-18T16:45:21.557Z,152013.34
2023-03-18T16:47:50.294Z,152017.16
2023-03-18T16:50:17.147Z,152027.31
2023-03-18T16:52:44.100Z,152004.50
2023-03-18T16:55:14.121Z,152023.53
2023-03-18T16:57:43.123Z,151986.75
2023-03-18T17:00:29.350Z,151966.47
2023-03-18T17:02:55.637Z,151967.72
2023-03-18T17:05:21.773Z,151953.78
2023-03-18T17:07:48.994Z,151975.31
2023-03-18T17:10:17.788Z,151996.88
2023-03-18T17:12:58.707Z,151980.38
2023-03-18T17:15:31.240Z,151949.97
2023-03-18T17:17:58.917Z,151948.72
2023-03-18T17:20:27.746Z,151939.81
2023-03-18T17:22:54.952Z,151943.59
2023-03-18T17:25:23.708Z,151937.28
2023-03-18T17:27:54.570Z,151925.88
2023-03-18T17:30:42.220Z,151892.94
2023-03-18T17:33:31.949Z,151886.56
2023-03-18T17:36:00.925Z,151863.78
2023-03-18T17:38:27.605Z,151859.97
2023-03-18T17:40:54.718Z,151909.38
2023-03-18T17:43:26.956Z,151882.78
2023-03-18T17:45:53.377Z,151843.50
2023-03-18T17:48:21.507Z,151810.53
2023-03-18T17:50:49.953Z,151796.59
2023-03-18T17:53:30.740Z,151795.31
2023-03-18T17:55:57.263Z,151781.38
2023-03-18T17:58:26.734Z,151797.84
2023-03-18T18:00:53.268Z,151780.09
2023-03-18T18:03:30.133Z,151796.59
2023-03-18T18:05:57.714Z,151795.31
2023-03-18T18:08:24.944Z,151764.91
2023-03-18T18:11:02.112Z,151757.31
2023-03-18T18:13:28.126Z,151752.25
2023-03-18T18:15:54.127Z,151716.72
2023-03-18T18:18:24.500Z,151742.06
2023-03-18T18:20:59.339Z,151767.47
2023-03-18T18:23:33.856Z,151739.53
2023-03-18T18:26:03.826Z,151745.84
2023-03-18T18:28:32.766Z,151714.22
2023-03-18T18:30:59.554Z,151726.84
2023-03-18T18:33:26.364Z,151759.84
2023-03-18T18:35:53.459Z,151754.78
2023-03-18T18:38:19.600Z,151688.84
2023-03-18T18:40:45.807Z,151699.00
2023-03-18T18:43:11.923Z,151731.94
2023-03-18T18:45:38.015Z,151724.31
2023-03-18T18:48:12.198Z,151719.25
2023-03-18T18:50:39.253Z,151719.25
2023-03-18T18:53:37.719Z,151696.47
2023-03-18T18:56:13.738Z,151673.63
2023-03-18T18:58:39.651Z,151671.09
2023-03-18T19:01:05.619Z,151668.56
2023-03-18T19:03:32.140Z,151712.94
2023-03-18T19:06:00.375Z,151695.19
2023-03-18T19:08:31.020Z,151681.25
2023-03-18T19:11:02.876Z,151668.56
2023-03-18T19:13:30.838Z,151657.16
2023-03-18T19:16:00.088Z,151663.53
2023-03-18T19:18:38.547Z,151674.91
2023-03-18T19:21:05.369Z,151647.06
2023-03-18T19:23:33.488Z,151635.63
2023-03-18T19:26:00.956Z,151629.31
2023-03-18T19:28:57.357Z,151604.00
2023-03-18T19:31:26.408Z,151568.53
2023-03-18T19:33:53.613Z,151569.81
2023-03-18T19:36:29.077Z,151593.84
2023-03-18T19:38:56.502Z,151576.13
2023-03-18T19:41:22.456Z,151573.59
2023-03-18T19:43:49.241Z,151597.63
2023-03-18T19:46:17.588Z,151576.13
2023-03-18T19:48:44.348Z,151578.66
2023-03-18T19:51:14.579Z,151564.69
2023-03-18T19:53:45.979Z,151559.66
2023-03-18T19:56:23.255Z,151557.13
2023-03-18T19:58:51.989Z,151509.00
2023-03-18T20:01:19.599Z,151540.66
2023-03-18T20:03:46.183Z,151515.34
2023-03-18T20:06:12.144Z,151531.81
2023-03-18T20:08:38.106Z,151525.47
2023-03-18T20:11:04.157Z,151534.34
2023-03-18T20:13:30.900Z,151526.72
2023-03-18T20:15:56.839Z,151490.00
2023-03-18T20:18:22.689Z,151495.06
2023-03-18T20:20:50.701Z,151530.50
2023-03-18T20:23:26.034Z,151529.25
2023-03-18T20:25:53.044Z,151538.13
2023-03-18T20:28:24.364Z,151521.66
2023-03-18T20:30:52.385Z,151510.25
2023-03-18T20:33:20.067Z,151530.50
2023-03-18T20:35:47.754Z,151490.00
2023-03-18T20:38:35.238Z,151484.94
2023-03-18T20:41:02.085Z,151492.53
2023-03-18T20:43:29.017Z,151469.75
2023-03-18T20:45:57.599Z,151453.28
2023-03-18T20:48:23.766Z,151453.28
2023-03-18T20:50:51.010Z,151478.63
2023-03-18T20:53:24.261Z,151479.91
2023-03-18T20:55:50.816Z,151473.53
2023-03-18T20:58:25.586Z,151454.53
2023-03-18T21:00:52.436Z,151463.44
2023-03-18T21:03:26.664Z,151454.53
2023-03-18T21:05:57.076Z,151462.16
2023-03-18T21:08:24.774Z,151496.38
2023-03-18T21:10:52.512Z,151458.34
2023-03-18T21:13:24.177Z,151467.22
2023-03-18T21:15:50.191Z,151462.16
2023-03-18T21:18:16.398Z,151462.16
2023-03-18T21:20:42.915Z,151478.63
2023-03-18T21:23:24.346Z,151443.19
2023-03-18T21:25:51.574Z,151431.78
2023-03-18T21:28:19.288Z,151446.97
2023-03-18T21:30:47.684Z,151445.72
2023-03-18T21:33:27.181Z,151425.47
2023-03-18T21:35:56.162Z,151416.56
2023-03-18T21:38:23.621Z,151419.09
2023-03-18T21:40:49.497Z,151429.25
2023-03-18T21:43:34.493Z,151415.31
2023-03-18T21:46:01.243Z,151420.38
2023-03-18T21:48:28.466Z,151422.88
2023-03-18T21:50:54.966Z,151401.38
2023-03-18T21:53:23.675Z,151405.22
2023-03-18T21:55:51.511Z,151397.59
2023-03-18T21:58:19.680Z,151402.66
2023-03-18T22:00:57.928Z,151400.13
2023-03-18T22:03:27.243Z,151431.78
2023-03-18T22:05:53.809Z,151417.84
2023-03-18T22:08:20.732Z,151386.19
2023-03-18T22:10:47.911Z,151421.63
2023-03-18T22:13:24.392Z,151405.22
2023-03-18T22:15:52.390Z,151400.13
2023-03-18T22:18:19.302Z,151382.41
2023-03-18T22:20:47.017Z,151395.06
2023-03-18T22:23:22.163Z,151421.63
2023-03-18T22:25:53.308Z,151411.53
2023-03-18T22:28:19.655Z,151434.31
2023-03-18T22:30:51.076Z,151425.47
2023-03-18T22:33:25.145Z,151428.00
2023-03-18T22:35:51.091Z,151407.75
2023-03-18T22:38:19.117Z,151401.38
2023-03-18T22:40:47.043Z,151416.56
2023-03-18T22:43:31.638Z,151402.66
2023-03-18T22:45:59.088Z,151376.09
2023-03-18T22:48:25.671Z,151376.09
2023-03-18T22:50:52.945Z,151378.59
2023-03-18T22:53:40.432Z,151358.38
2023-03-18T22:56:09.845Z,151330.44
2023-03-18T22:58:35.774Z,151396.34
2023-03-18T23:01:01.560Z,151377.34
2023-03-18T23:03:33.051Z,151352.00
2023-03-18T23:06:00.433Z,151346.91
2023-03-18T23:08:26.977Z,151325.41
2023-03-18T23:10:55.754Z,151343.13
2023-03-18T23:13:24.151Z,151314.00
2023-03-18T23:15:50.488Z,151311.47
2023-03-18T23:18:17.603Z,151306.41
2023-03-18T23:20:46.029Z,151326.66
2023-03-18T23:23:12.466Z,151297.59
2023-03-18T23:25:39.623Z,151320.34
2023-03-18T23:28:05.972Z,151305.16
2023-03-18T23:30:33.913Z,151322.88
2023-03-18T23:33:00.206Z,151314.00
2023-03-18T23:35:26.118Z,151329.19
2023-03-18T23:37:51.919Z,151293.75
2023-03-18T23:40:17.868Z,151305.16
2023-03-18T23:42:44.382Z,151314.00
2023-03-18T23:45:11.339Z,151352.00
2023-03-18T23:47:37.416Z,151338.06
2023-03-18T23:50:07.893Z,151341.84
2023-03-18T23:52:33.887Z,151338.06
2023-03-18T23:54:59.834Z,151348.16
2023-03-18T23:57:26.773Z,151341.84
2023-03-18T23:59:52.878Z,151348.16
